createdAt,value
2022-10-17T00:00:20.903Z,11.60
2022-10-17T00:02:24.323Z,11.70
2022-10-17T00:04:27.145Z,11.70
2022-10-17T00:06:29.491Z,11.70
2022-10-17T00:08:31.704Z,11.70
2022-10-17T00:10:34.374Z,11.70
2022-10-17T00:12:36.809Z,11.60
2022-10-17T00:14:39.599Z,11.60
2022-10-17T00:16:44.820Z,11.50
2022-10-17T00:18:47.107Z,11.40
2022-10-17T00:20:49.453Z,11.50
2022-10-17T00:22:52.268Z,11.40
2022-10-17T00:24:54.499Z,11.40
2022-10-17T00:26:59.259Z,11.50
2022-10-17T00:29:01.747Z,11.60
2022-10-17T00:31:06.596Z,11.50
2022-10-17T00:33:11.884Z,11.60
2022-10-17T00:35:14.761Z,11.60
2022-10-17T00:37:17.234Z,11.70
2022-10-17T00:39:20.815Z,11.70
2022-10-17T00:41:25.356Z,11.80
2022-10-17T00:43:29.845Z,11.80
2022-10-17T00:45:32.719Z,11.80
2022-10-17T00:47:36.760Z,11.90
2022-10-17T00:49:41.908Z,12.30
2022-10-17T00:51:47.032Z,12.00
2022-10-17T00:53:51.813Z,12.00
2022-10-17T00:55:54.672Z,12.10
2022-10-17T00:57:57.897Z,12.10
2022-10-17T01:00:03.063Z,12.10
2022-10-17T01:02:08.910Z,13.10
2022-10-17T01:04:12.053Z,12.20
2022-10-17T01:06:17.037Z,12.90
2022-10-17T01:08:19.426Z,12.20
2022-10-17T01:12:29.350Z,12.30
2022-10-17T01:14:37.439Z,12.30
2022-10-17T01:16:49.077Z,13.00
2022-10-17T01:19:02.632Z,12.30
2022-10-17T01:21:22.954Z,13.30
2022-10-17T01:23:41.897Z,12.30
2022-10-17T01:25:54.020Z,13.40
2022-10-17T01:28:19.965Z,12.40
2022-10-17T01:31:09.893Z,12.40
2022-10-17T01:33:21.592Z,12.40
2022-10-17T01:35:27.979Z,12.40
2022-10-17T01:37:34.634Z,12.40
2022-10-17T01:39:48.985Z,12.50
2022-10-17T01:41:57.226Z,12.50
2022-10-17T01:44:03.925Z,12.50
2022-10-17T01:46:13.625Z,12.70
2022-10-17T01:48:23.805Z,12.60
2022-10-17T01:50:32.690Z,12.90
2022-10-17T01:52:41.974Z,13.30
2022-10-17T01:54:50.419Z,12.50
2022-10-17T01:56:58.348Z,12.60
2022-10-17T01:59:06.840Z,12.70
2022-10-17T02:01:11.159Z,12.70
2022-10-17T02:03:28.747Z,13.20
2022-10-17T02:05:34.232Z,12.70
2022-10-17T02:07:36.490Z,12.70
2022-10-17T02:09:43.331Z,12.70
2022-10-17T02:12:00.279Z,12.70
2022-10-17T02:14:18.719Z,12.70
2022-10-17T02:16:34.116Z,12.70
2022-10-17T02:18:55.325Z,12.70
2022-10-17T02:21:03.122Z,12.70
2022-10-17T02:23:11.900Z,12.70
2022-10-17T02:25:21.919Z,13.70
2022-10-17T02:27:34.021Z,12.60
2022-10-17T02:29:46.620Z,12.80
2022-10-17T02:31:54.365Z,12.60
2022-10-17T02:34:02.469Z,12.60
2022-10-17T02:36:09.847Z,12.60
2022-10-17T02:38:13.465Z,12.60
2022-10-17T02:40:21.014Z,12.60
2022-10-17T02:42:24.819Z,12.60
2022-10-17T02:44:29.017Z,12.30
2022-10-17T02:46:31.767Z,12.60
2022-10-17T02:48:38.477Z,12.00
2022-10-17T02:50:55.206Z,13.00
2022-10-17T02:53:04.951Z,12.80
2022-10-17T02:55:14.115Z,12.70
2022-10-17T02:57:22.263Z,12.60
2022-10-17T02:59:26.668Z,11.80
2022-10-17T03:01:30.365Z,13.10
2022-10-17T03:03:33.177Z,12.50
2022-10-17T03:05:36.497Z,13.50
2022-10-17T03:07:41.385Z,12.50
2022-10-17T03:09:43.644Z,12.60
2022-10-17T03:11:45.957Z,13.70
2022-10-17T03:13:48.289Z,12.60
2022-10-17T03:15:50.732Z,12.90
2022-10-17T03:17:53.036Z,12.50
2022-10-17T03:19:55.406Z,12.60
2022-10-17T03:21:58.785Z,12.90
2022-10-17T03:24:04.130Z,12.60
2022-10-17T03:26:07.112Z,12.50
2022-10-17T03:28:11.452Z,12.90
2022-10-17T03:30:13.830Z,13.10
2022-10-17T03:32:16.145Z,13.00
2022-10-17T03:34:18.969Z,12.50
2022-10-17T03:36:21.464Z,13.10
2022-10-17T03:38:23.838Z,12.50
2022-10-17T03:40:28.702Z,12.50
2022-10-17T03:42:35.059Z,12.50
2022-10-17T03:44:37.382Z,12.80
2022-10-17T03:46:39.638Z,12.50
2022-10-17T03:48:42.027Z,12.50
2022-10-17T03:50:44.261Z,12.50
2022-10-17T03:52:48.385Z,12.40
2022-10-17T03:54:51.163Z,12.40
2022-10-17T03:58:59.570Z,12.40
2022-10-17T04:01:04.473Z,12.40
2022-10-17T04:03:06.728Z,12.40
2022-10-17T04:05:09.523Z,12.70
2022-10-17T04:07:13.538Z,12.40
2022-10-17T04:09:16.037Z,12.40
2022-10-17T04:11:20.448Z,12.40
2022-10-17T04:13:25.371Z,12.50
2022-10-17T04:15:27.714Z,12.50
2022-10-17T04:17:35.821Z,12.50
2022-10-17T04:19:40.473Z,12.50
2022-10-17T04:21:42.807Z,12.70
2022-10-17T04:23:45.017Z,12.50
2022-10-17T04:25:47.311Z,12.50
2022-10-17T04:27:49.614Z,12.60
2022-10-17T04:29:54.487Z,13.60
2022-10-17T04:31:56.728Z,12.60
2022-10-17T04:33:59.313Z,12.60
2022-10-17T04:36:02.683Z,13.50
2022-10-17T04:38:04.930Z,12.60
2022-10-17T04:40:09.212Z,12.70
2022-10-17T04:42:11.610Z,12.60
2022-10-17T04:44:14.186Z,12.40
2022-10-17T04:46:19.079Z,12.70
2022-10-17T04:48:21.518Z,13.00
2022-10-17T04:50:23.868Z,12.70
2022-10-17T04:52:26.766Z,12.70
2022-10-17T04:54:29.302Z,12.70
2022-10-17T04:56:31.979Z,12.80
2022-10-17T04:58:34.197Z,12.80
2022-10-17T05:00:36.564Z,12.80
2022-10-17T05:02:41.380Z,12.80
2022-10-17T05:04:43.689Z,12.80
2022-10-17T05:06:45.912Z,12.80
2022-10-17T05:08:49.591Z,12.90
2022-10-17T05:10:51.899Z,12.90
2022-10-17T05:12:56.347Z,13.00
2022-10-17T05:14:58.637Z,12.90
2022-10-17T05:17:00.931Z,12.90
2022-10-17T05:19:08.401Z,12.90
2022-10-17T05:21:10.743Z,12.90
2022-10-17T05:23:13.142Z,13.00
2022-10-17T05:25:15.707Z,13.00
2022-10-17T05:27:20.549Z,13.00
2022-10-17T05:29:23.175Z,13.80
2022-10-17T05:31:25.486Z,13.00
2022-10-17T05:33:27.710Z,13.00
2022-10-17T05:35:32.612Z,13.00
2022-10-17T05:37:35.010Z,13.00
2022-10-17T05:39:37.304Z,13.30
2022-10-17T05:41:39.662Z,13.00
2022-10-17T05:43:41.905Z,13.00
2022-10-17T05:45:44.167Z,13.00
2022-10-17T05:47:46.461Z,13.00
2022-10-17T05:49:52.263Z,13.00
2022-10-17T05:51:57.550Z,13.00
2022-10-17T05:53:59.791Z,13.00
2022-10-17T05:56:04.479Z,13.10
2022-10-17T05:58:07.050Z,13.10
2022-10-17T06:00:10.923Z,13.10
2022-10-17T06:02:16.622Z,13.10
2022-10-17T06:04:19.002Z,13.20
2022-10-17T06:06:21.300Z,13.20
2022-10-17T06:08:26.116Z,13.30
2022-10-17T06:10:29.283Z,13.30
2022-10-17T06:12:31.830Z,13.40
2022-10-17T06:14:34.834Z,13.50
2022-10-17T06:16:37.137Z,13.50
2022-10-17T06:18:39.747Z,13.60
2022-10-17T06:20:45.285Z,13.70
2022-10-17T06:22:48.422Z,13.60
2022-10-17T06:24:54.707Z,13.80
2022-10-17T06:26:59.160Z,13.80
2022-10-17T06:29:01.541Z,13.80
2022-10-17T06:31:06.246Z,13.90
2022-10-17T06:33:08.749Z,13.90
2022-10-17T06:35:11.001Z,14.10
2022-10-17T06:37:13.285Z,13.90
2022-10-17T06:39:15.636Z,13.90
2022-10-17T06:41:20.570Z,14.00
2022-10-17T06:43:27.753Z,14.00
2022-10-17T06:45:30.478Z,14.10
2022-10-17T06:47:32.995Z,14.10
2022-10-17T06:49:35.504Z,14.10
2022-10-17T06:51:38.000Z,14.30
2022-10-17T06:53:41.263Z,14.50
2022-10-17T06:55:43.778Z,14.20
2022-10-17T06:57:48.680Z,14.30
2022-10-17T06:59:55.540Z,15.00
2022-10-17T07:01:57.854Z,14.90
2022-10-17T07:04:00.596Z,14.30
2022-10-17T07:06:03.755Z,14.40
2022-10-17T07:08:06.386Z,14.40
2022-10-17T07:10:09.423Z,14.40
2022-10-17T07:12:12.876Z,14.40
2022-10-17T07:14:17.731Z,14.40
2022-10-17T07:16:21.257Z,14.50
2022-10-17T07:18:23.656Z,14.40
2022-10-17T07:20:25.942Z,14.50
2022-10-17T07:22:28.304Z,14.60
2022-10-17T07:24:30.602Z,14.60
2022-10-17T07:26:33.299Z,14.70
2022-10-17T07:28:36.063Z,15.50
2022-10-17T07:30:41.097Z,14.80
2022-10-17T07:32:43.738Z,15.00
2022-10-17T07:34:45.903Z,14.90
2022-10-17T07:36:48.242Z,15.00
2022-10-17T07:38:51.038Z,15.10
2022-10-17T07:40:56.675Z,15.10
2022-10-17T07:42:58.990Z,15.30
2022-10-17T07:45:01.234Z,15.30
2022-10-17T07:47:06.264Z,15.30
2022-10-17T07:49:08.548Z,15.40
2022-10-17T07:51:11.070Z,15.40
2022-10-17T07:53:13.609Z,15.40
2022-10-17T07:55:16.155Z,15.50
2022-10-17T07:57:18.438Z,15.50
2022-10-17T07:59:20.768Z,16.20
2022-10-17T08:01:23.249Z,15.60
2022-10-17T08:03:28.212Z,15.60
2022-10-17T08:05:31.537Z,16.30
2022-10-17T08:07:35.752Z,15.90
2022-10-17T08:09:38.269Z,16.00
2022-10-17T08:11:40.629Z,16.20
2022-10-17T08:13:45.086Z,16.30
2022-10-17T08:15:48.096Z,16.40
2022-10-17T08:17:50.709Z,16.70
2022-10-17T08:19:55.684Z,16.50
2022-10-17T08:21:59.221Z,16.60
2022-10-17T08:24:02.918Z,16.50
2022-10-17T08:26:08.249Z,16.50
2022-10-17T08:28:10.533Z,16.60
2022-10-17T08:30:14.471Z,16.60
2022-10-17T08:32:16.733Z,16.60
2022-10-17T08:34:19.473Z,16.70
2022-10-17T08:36:24.495Z,16.70
2022-10-17T08:38:29.379Z,16.70
2022-10-17T08:40:33.960Z,16.70
2022-10-17T08:42:56.270Z,16.70
2022-10-17T08:45:08.417Z,16.80
2022-10-17T08:47:14.534Z,16.80
2022-10-17T08:49:25.285Z,17.00
2022-10-17T08:51:33.771Z,16.80
2022-10-17T08:53:39.849Z,16.90
2022-10-17T08:55:46.053Z,16.90
2022-10-17T08:57:48.836Z,17.00
2022-10-17T08:59:53.571Z,17.00
2022-10-17T09:02:03.849Z,17.00
2022-10-17T09:04:37.913Z,16.80
2022-10-17T09:06:48.930Z,17.10
2022-10-17T09:09:03.475Z,17.00
2022-10-17T09:11:15.884Z,17.00
2022-10-17T09:13:28.585Z,17.00
2022-10-17T09:15:43.148Z,17.10
2022-10-17T09:17:52.708Z,17.00
2022-10-17T09:20:05.130Z,17.10
2022-10-17T09:22:14.475Z,17.10
2022-10-17T09:24:25.313Z,17.00
2022-10-17T09:26:30.184Z,17.00
2022-10-17T09:28:34.908Z,17.00
2022-10-17T09:30:45.825Z,17.10
2022-10-17T09:32:48.936Z,17.30
2022-10-17T09:34:52.741Z,17.20
2022-10-17T09:36:58.781Z,17.10
2022-10-17T09:39:12.534Z,17.20
2022-10-17T09:41:43.663Z,17.20
2022-10-17T09:43:41.830Z,17.20
2022-10-17T09:45:52.337Z,17.20
2022-10-17T09:48:05.537Z,17.30
2022-10-17T09:50:16.165Z,17.20
2022-10-17T09:52:22.461Z,17.30
2022-10-17T09:54:36.647Z,17.40
2022-10-17T09:56:57.917Z,17.40
2022-10-17T09:59:00.218Z,17.30
2022-10-17T10:01:23.793Z,17.30
2022-10-17T10:03:27.351Z,17.20
2022-10-17T10:05:32.539Z,17.20
2022-10-17T10:07:37.368Z,17.20
2022-10-17T10:09:47.320Z,17.30
2022-10-17T10:11:52.409Z,17.10
2022-10-17T10:13:54.770Z,17.00
2022-10-17T10:16:13.171Z,17.00
2022-10-17T10:20:35.239Z,16.90
2022-10-17T10:22:37.572Z,16.80
2022-10-17T10:24:42.676Z,17.50
2022-10-17T10:26:46.502Z,16.80
2022-10-17T10:29:00.081Z,16.80
2022-10-17T10:31:05.746Z,16.70
2022-10-17T10:33:12.233Z,16.70
2022-10-17T10:35:21.469Z,16.70
2022-10-17T10:37:27.012Z,16.70
2022-10-17T10:39:36.273Z,16.70
2022-10-17T10:41:49.334Z,16.70
2022-10-17T10:43:54.237Z,16.70
2022-10-17T10:45:56.459Z,16.60
2022-10-17T10:48:00.597Z,16.60
2022-10-17T10:50:16.393Z,16.60
2022-10-17T10:52:31.558Z,16.60
2022-10-17T10:56:45.003Z,16.60
2022-10-17T10:58:55.070Z,16.60
2022-10-17T11:01:02.867Z,16.60
2022-10-17T11:03:12.940Z,16.50
2022-10-17T11:05:22.226Z,16.60
2022-10-17T11:07:33.902Z,16.50
2022-10-17T11:09:51.182Z,16.70
2022-10-17T11:12:00.667Z,16.60
2022-10-17T11:14:13.758Z,16.60
2022-10-17T11:16:28.105Z,16.60
2022-10-17T11:18:35.788Z,16.60
2022-10-17T11:20:51.635Z,16.70
2022-10-17T11:23:03.225Z,16.70
2022-10-17T11:25:14.312Z,16.70
2022-10-17T11:27:16.606Z,16.70
2022-10-17T11:29:30.667Z,16.70
2022-10-17T11:31:38.629Z,16.70
2022-10-17T11:33:46.885Z,16.70
2022-10-17T11:35:54.418Z,16.70
2022-10-17T11:38:05.575Z,16.70
2022-10-17T11:40:20.419Z,16.70
2022-10-17T11:42:30.628Z,16.70
2022-10-17T11:44:38.049Z,16.60
2022-10-17T11:46:42.578Z,16.70
2022-10-17T11:48:56.532Z,16.60
2022-10-17T11:53:42.013Z,16.60
2022-10-17T11:55:45.837Z,16.60
2022-10-17T11:58:12.920Z,16.60
2022-10-17T12:00:39.208Z,16.60
2022-10-17T12:02:54.565Z,16.60
2022-10-17T12:05:02.383Z,16.60
2022-10-17T12:07:14.231Z,16.60
2022-10-17T12:09:25.389Z,16.60
2022-10-17T12:11:38.574Z,16.60
2022-10-17T12:13:53.199Z,16.60
2022-10-17T12:16:18.687Z,16.60
2022-10-17T12:18:30.299Z,16.60
2022-10-17T12:20:34.946Z,16.70
2022-10-17T12:22:46.013Z,16.70
2022-10-17T12:25:17.177Z,16.70
2022-10-17T12:27:24.466Z,16.80
2022-10-17T12:29:30.121Z,16.80
2022-10-17T12:31:35.261Z,16.90
2022-10-17T12:33:47.811Z,16.90
2022-10-17T12:35:51.398Z,17.00
2022-10-17T12:38:19.906Z,17.00
2022-10-17T12:40:50.821Z,17.00
2022-10-17T12:42:53.012Z,17.00
2022-10-17T12:44:55.305Z,17.00
2022-10-17T12:47:38.046Z,17.30
2022-10-17T12:49:42.761Z,17.00
2022-10-17T12:52:20.840Z,17.00
2022-10-17T12:54:24.084Z,17.00
2022-10-17T12:56:36.741Z,17.00
2022-10-17T12:58:45.396Z,16.90
2022-10-17T13:01:19.152Z,16.90
2022-10-17T13:03:22.358Z,16.80
2022-10-17T13:05:29.852Z,16.90
2022-10-17T13:07:34.696Z,16.80
2022-10-17T13:09:42.717Z,16.80
2022-10-17T13:11:45.690Z,17.00
2022-10-17T13:13:52.350Z,16.70
2022-10-17T13:15:55.756Z,16.80
2022-10-17T13:17:59.700Z,16.70
2022-10-17T13:20:25.496Z,16.70
2022-10-17T13:22:33.172Z,16.70
2022-10-17T13:24:38.305Z,16.60
2022-10-17T13:26:45.554Z,16.60
2022-10-17T13:29:01.976Z,16.60
2022-10-17T13:31:04.410Z,16.50
2022-10-17T13:33:32.224Z,16.50
2022-10-17T13:38:07.753Z,16.40
2022-10-17T13:40:44.189Z,16.40
2022-10-17T13:42:41.685Z,16.30
2022-10-17T13:44:46.753Z,16.30
2022-10-17T13:46:49.656Z,16.40
2022-10-17T13:48:52.046Z,16.20
2022-10-17T13:51:03.004Z,16.40
2022-10-17T13:53:17.872Z,16.10
2022-10-17T13:55:22.164Z,16.10
2022-10-17T13:57:26.985Z,16.10
2022-10-17T13:59:34.005Z,16.10
2022-10-17T14:01:38.303Z,16.10
2022-10-17T14:03:48.784Z,16.30
2022-10-17T14:06:30.276Z,16.00
2022-10-17T14:08:34.789Z,16.00
2022-10-17T14:10:38.917Z,16.00
2022-10-17T14:12:43.433Z,16.00
2022-10-17T14:15:12.151Z,15.90
2022-10-17T14:17:21.804Z,15.90
2022-10-17T14:19:27.854Z,15.90
2022-10-17T14:21:43.773Z,15.90
2022-10-17T14:23:46.701Z,15.80
2022-10-17T14:25:49.037Z,15.80
2022-10-17T14:28:04.070Z,15.80
2022-10-17T14:32:50.612Z,15.80
2022-10-17T14:35:01.436Z,15.80
2022-10-17T14:37:36.319Z,15.70
2022-10-17T14:39:41.529Z,15.70
2022-10-17T14:41:45.956Z,15.70
2022-10-17T14:43:54.277Z,15.70
2022-10-17T14:45:58.604Z,15.70
2022-10-17T14:48:03.723Z,15.70
2022-10-17T14:50:08.654Z,15.70
2022-10-17T14:52:31.110Z,15.60
2022-10-17T14:54:39.191Z,15.70
2022-10-17T14:56:43.348Z,15.70
2022-10-17T14:58:52.088Z,15.70
2022-10-17T15:00:54.510Z,15.60
2022-10-17T15:02:57.044Z,15.60
2022-10-17T15:04:59.400Z,15.60
2022-10-17T15:07:02.220Z,16.00
2022-10-17T15:09:07.247Z,15.60
2022-10-17T15:11:11.061Z,15.60
2022-10-17T15:13:32.377Z,15.40
2022-10-17T15:15:38.283Z,15.70
2022-10-17T15:19:44.502Z,15.70
2022-10-17T15:21:56.451Z,15.70
2022-10-17T15:23:59.485Z,15.10
2022-10-17T15:26:11.617Z,16.60
2022-10-17T15:28:15.538Z,15.70
2022-10-17T15:30:22.223Z,15.20
2022-10-17T15:32:24.592Z,16.50
2022-10-17T15:34:29.166Z,15.80
2022-10-17T15:36:37.762Z,16.50
2022-10-17T15:38:44.612Z,15.70
2022-10-17T15:40:50.891Z,15.70
2022-10-17T15:42:59.378Z,15.30
2022-10-17T15:45:01.824Z,15.70
2022-10-17T15:47:04.738Z,15.70
2022-10-17T15:49:10.355Z,15.80
2022-10-17T15:51:15.893Z,16.40
2022-10-17T15:53:18.494Z,15.00
2022-10-17T15:55:20.788Z,15.60
2022-10-17T15:57:25.793Z,15.60
2022-10-17T15:59:37.587Z,15.50
2022-10-17T16:01:40.570Z,15.50
2022-10-17T16:03:48.210Z,15.50
2022-10-17T16:05:50.714Z,15.50
2022-10-17T16:08:00.542Z,16.30
2022-10-17T16:10:03.068Z,15.40
2022-10-17T16:12:07.443Z,15.40
2022-10-17T16:14:12.852Z,14.60
2022-10-17T16:16:18.075Z,15.40
2022-10-17T16:18:24.265Z,15.10
2022-10-17T16:20:26.756Z,15.30
2022-10-17T16:22:32.997Z,15.30
2022-10-17T16:24:41.663Z,15.10
2022-10-17T16:26:45.706Z,15.30
2022-10-17T16:28:48.698Z,15.20
2022-10-17T16:30:51.457Z,16.00
2022-10-17T16:32:57.185Z,15.20
2022-10-17T16:35:00.440Z,15.20
2022-10-17T16:37:02.719Z,15.20
2022-10-17T16:39:08.338Z,15.10
2022-10-17T16:41:21.954Z,14.50
2022-10-17T16:43:24.333Z,14.70
2022-10-17T16:45:26.678Z,15.10
2022-10-17T16:47:29.045Z,15.10
2022-10-17T16:49:42.944Z,15.40
2022-10-17T16:51:50.060Z,14.40
2022-10-17T16:53:54.472Z,15.70
2022-10-17T16:55:59.969Z,15.00
2022-10-17T16:58:02.423Z,15.00
2022-10-17T17:00:07.905Z,15.00
2022-10-17T17:02:15.196Z,15.00
2022-10-17T17:04:18.917Z,15.00
2022-10-17T17:06:29.692Z,15.00
2022-10-17T17:08:33.698Z,14.30
2022-10-17T17:10:35.967Z,14.90
2022-10-17T17:12:38.658Z,15.10
2022-10-17T17:14:40.976Z,14.90
2022-10-17T17:16:44.768Z,14.90
2022-10-17T17:18:49.450Z,14.90
2022-10-17T17:23:33.330Z,15.00
2022-10-17T17:28:06.403Z,14.80
2022-10-17T17:30:12.403Z,14.80
2022-10-17T17:32:19.467Z,14.70
2022-10-17T17:34:23.163Z,14.80
2022-10-17T17:36:31.939Z,15.40
2022-10-17T17:38:40.221Z,14.80
2022-10-17T17:40:50.541Z,15.50
2022-10-17T17:42:53.804Z,15.30
2022-10-17T17:44:59.370Z,15.10
2022-10-17T17:47:02.286Z,14.70
2022-10-17T17:49:05.185Z,15.30
2022-10-17T17:51:13.503Z,15.70
2022-10-17T17:53:20.253Z,15.20
2022-10-17T17:57:41.631Z,15.40
2022-10-17T17:59:53.744Z,14.90
2022-10-17T18:02:03.671Z,15.40
2022-10-17T18:04:30.550Z,14.70
2022-10-17T18:06:33.534Z,14.80
2022-10-17T18:08:37.393Z,14.70
2022-10-17T18:10:48.052Z,14.80
2022-10-17T18:12:52.524Z,14.70
2022-10-17T18:14:58.203Z,14.80
2022-10-17T18:17:03.179Z,15.10
2022-10-17T18:19:07.491Z,15.40
2022-10-17T18:21:13.713Z,14.80
2022-10-17T18:23:17.989Z,14.80
2022-10-17T18:25:21.036Z,14.80
2022-10-17T18:27:25.973Z,14.80
2022-10-17T18:29:29.522Z,14.80
2022-10-17T18:31:36.042Z,14.80
2022-10-17T18:33:39.457Z,14.80
2022-10-17T18:35:50.973Z,14.80
2022-10-17T18:38:05.864Z,14.80
2022-10-17T18:40:11.163Z,14.70
2022-10-17T18:42:18.275Z,14.70
2022-10-17T18:44:25.243Z,14.90
2022-10-17T18:46:36.127Z,14.70
2022-10-17T18:48:40.472Z,14.70
2022-10-17T18:50:45.798Z,14.70
2022-10-17T18:52:49.007Z,14.70
2022-10-17T18:54:51.521Z,14.60
2022-10-17T18:56:55.380Z,14.60
2022-10-17T18:58:58.043Z,14.60
2022-10-17T19:01:06.396Z,14.60
2022-10-17T19:03:08.800Z,14.60
2022-10-17T19:05:11.148Z,14.60
2022-10-17T19:07:13.381Z,14.60
2022-10-17T19:09:22.030Z,14.60
2022-10-17T19:11:26.354Z,14.90
2022-10-17T19:13:28.860Z,14.60
2022-10-17T19:15:38.852Z,14.60
2022-10-17T19:17:43.744Z,14.60
2022-10-17T19:19:50.045Z,14.50
2022-10-17T19:21:52.819Z,14.60
2022-10-17T19:23:58.144Z,14.50
2022-10-17T19:26:03.543Z,14.50
2022-10-17T19:28:05.805Z,14.50
2022-10-17T19:30:09.369Z,14.50
2022-10-17T19:32:16.896Z,14.50
2022-10-17T19:34:24.402Z,14.40
2022-10-17T19:36:32.352Z,14.40
2022-10-17T19:38:36.491Z,14.40
2022-10-17T19:40:41.274Z,14.40
2022-10-17T19:42:43.642Z,14.40
2022-10-17T19:44:46.244Z,14.40
2022-10-17T19:46:49.337Z,14.30
2022-10-17T19:48:52.567Z,14.30
2022-10-17T19:50:57.443Z,14.40
2022-10-17T19:52:59.786Z,14.30
2022-10-17T19:55:02.426Z,14.30
2022-10-17T19:57:09.700Z,14.30
2022-10-17T19:59:14.738Z,14.30
2022-10-17T20:01:18.519Z,14.30
2022-10-17T20:03:21.393Z,14.30
2022-10-17T20:05:27.300Z,14.30
2022-10-17T20:07:33.032Z,14.30
2022-10-17T20:09:35.372Z,14.70
2022-10-17T20:11:37.784Z,14.20
2022-10-17T20:13:40.597Z,14.20
2022-10-17T20:15:43.264Z,14.20
2022-10-17T20:17:46.067Z,14.20
2022-10-17T20:19:48.563Z,14.20
2022-10-17T20:21:50.849Z,14.10
2022-10-17T20:23:55.926Z,14.10
2022-10-17T20:26:06.846Z,14.70
2022-10-17T20:28:16.505Z,14.10
2022-10-17T20:30:19.246Z,14.10
2022-10-17T20:32:21.848Z,14.10
2022-10-17T20:34:24.635Z,14.00
2022-10-17T20:36:27.515Z,14.10
2022-10-17T20:38:29.763Z,14.10
2022-10-17T20:40:35.689Z,14.00
2022-10-17T20:42:38.392Z,14.00
2022-10-17T20:44:41.110Z,14.00
2022-10-17T20:46:52.965Z,14.00
2022-10-17T20:49:03.130Z,14.00
2022-10-17T20:51:07.809Z,14.00
2022-10-17T20:53:35.599Z,14.00
2022-10-17T20:55:35.384Z,14.00
2022-10-17T20:57:37.705Z,14.00
2022-10-17T20:59:40.165Z,14.00
2022-10-17T21:01:42.920Z,14.00
2022-10-17T21:03:46.678Z,14.00
2022-10-17T21:05:51.833Z,14.00
2022-10-17T21:07:58.855Z,14.00
2022-10-17T21:10:17.658Z,14.00
2022-10-17T21:12:36.874Z,14.70
2022-10-17T21:14:45.597Z,13.90
2022-10-17T21:16:48.211Z,13.90
2022-10-17T21:18:50.780Z,13.90
2022-10-17T21:20:53.329Z,13.90
2022-10-17T21:22:57.525Z,13.90
2022-10-17T21:25:00.321Z,14.40
2022-10-17T21:27:02.680Z,13.90
2022-10-17T21:29:09.512Z,13.90
2022-10-17T21:31:14.437Z,13.90
2022-10-17T21:33:16.782Z,14.50
2022-10-17T21:35:19.074Z,13.90
2022-10-17T21:37:21.416Z,14.00
2022-10-17T21:39:24.989Z,14.50
2022-10-17T21:41:28.833Z,14.10
2022-10-17T21:43:32.718Z,13.80
2022-10-17T21:45:39.516Z,13.80
2022-10-17T21:47:45.616Z,13.80
2022-10-17T21:49:57.357Z,13.80
2022-10-17T21:51:59.881Z,13.80
2022-10-17T21:54:05.670Z,13.70
2022-10-17T21:56:11.137Z,13.70
2022-10-17T21:58:13.561Z,13.70
2022-10-17T22:00:17.167Z,13.60
2022-10-17T22:02:22.678Z,13.60
2022-10-17T22:04:28.402Z,13.60
2022-10-17T22:06:39.614Z,13.70
2022-10-17T22:08:42.950Z,13.60
2022-10-17T22:10:45.221Z,13.60
2022-10-17T22:12:47.555Z,13.60
2022-10-17T22:14:49.915Z,13.60
2022-10-17T22:16:52.888Z,13.60
2022-10-17T22:19:03.304Z,13.60
2022-10-17T22:21:10.889Z,13.60
2022-10-17T22:23:13.251Z,14.20
2022-10-17T22:25:15.911Z,13.50
2022-10-17T22:27:18.158Z,13.50
2022-10-17T22:29:21.279Z,13.60
2022-10-17T22:31:23.972Z,13.50
2022-10-17T22:33:26.406Z,14.20
2022-10-17T22:35:31.292Z,13.50
2022-10-17T22:37:33.701Z,13.60
2022-10-17T22:39:36.493Z,13.60
2022-10-17T22:41:39.091Z,13.60
2022-10-17T22:43:41.550Z,13.30
2022-10-17T22:45:51.088Z,13.50
2022-10-17T22:47:54.397Z,13.60
2022-10-17T22:49:56.762Z,13.50
2022-10-17T22:52:01.866Z,13.50
2022-10-17T22:54:04.429Z,13.50
2022-10-17T22:56:09.884Z,13.50
2022-10-17T22:58:12.146Z,13.60
2022-10-17T23:00:16.127Z,13.60
2022-10-17T23:02:18.432Z,13.60
2022-10-17T23:04:20.645Z,13.60
2022-10-17T23:06:23.361Z,13.50
2022-10-17T23:08:28.605Z,13.60
2022-10-17T23:10:30.929Z,13.60
2022-10-17T23:12:33.402Z,13.60
2022-10-17T23:14:43.302Z,13.50
2022-10-17T23:16:45.630Z,13.60
2022-10-17T23:18:48.052Z,13.60
2022-10-17T23:20:50.634Z,13.60
2022-10-17T23:22:53.060Z,13.50
2022-10-17T23:24:57.917Z,14.20
2022-10-17T23:27:00.584Z,13.60
2022-10-17T23:29:02.862Z,14.20
2022-10-17T23:31:10.603Z,13.90
2022-10-17T23:33:13.794Z,13.60
2022-10-17T23:35:16.258Z,13.50
2022-10-17T23:37:18.790Z,13.50
2022-10-17T23:39:21.273Z,14.10
2022-10-17T23:41:26.572Z,13.50
2022-10-17T23:43:29.934Z,13.50
2022-10-17T23:45:36.140Z,13.50
2022-10-17T23:47:39.377Z,13.50
2022-10-17T23:49:41.728Z,13.60
2022-10-17T23:51:43.996Z,13.50
2022-10-17T23:53:46.358Z,13.50
2022-10-17T23:55:48.572Z,13.50
2022-10-17T23:57:53.477Z,13.40
2022-10-17T23:59:55.731Z,13.40
